Página principal
METAR-TAF:

METAR-TAF

Aeroportos :

Aeroporto Internacional de Lomé-Tokoin

Lomé, Togo

latitude: 06-10N, longitude: 001-15E, altura: 20 m

Observação actual do tempo

O boletim foi feito há 1 hora e 3 minutos, às 19:00 UTC
Vento 10 kt de sudoeste
Temperatura 29°C
Humidade 84%
Pressão 1010 hPa
Visibilidade 10 km ou mais
Poucas nuvensa uma altura de 1300 ft

METAR: DXXX 141900Z 22010KT 9999 FEW013 29/26 Q1010 NOSIG

Hora: 20:03 (20:03 UTC)

Previsão

O boletim foi feito há 3 horas e 3 minutos, às 17:00 UTC
Previsão válida de 14 às 18 UTC a 15 às 24 UTC
Vento 10 kt de su-sudoeste
Visibilidade 10 km ou mais
Poucas nuvensa uma altura de 1300 ft
Tornando-se
de 14 às 23 UTC a 15 às 01 UTC
Vento 5 kt de oeste
Tornando-se
de 15 às 08 UTC a 15 às 10 UTC
Vento 10 kt de su-sudoeste

TAF: DXXX 141700Z 1418/1524 20010KT 9999 FEW013 BECMG 1423/1501 26005KT BECMG 1508/1510 20010KT

Observações e previsões do tempo de mais de 4000 aeroportos (mensagens METAR e TAF).

As estações disponíveis são os pontos amarelos e vermelhos sobre o mapa.

Mova o rato sobre o mapa para ver o nome da estação.

Depois clique no ponto para visualizar as observações e previsões meteorológicas.

Para alterar o mapa : clique nos botões verdes com uma cruz preta para aumentar o zoom; no botão verde com uma pitada de zoom; ou nas setas verdes para mapas adjacentes.


METAR-TAF: